Aérodrome :
LOGIN :

S'inscrire | Disclaimer

   EN    FR    IT 

 










Légende :    VFR   VFR Marginal   IFR   IFR Intensif   IFR Très Intensif
Visi : 
Plafond : 
>= 8 km
>= 3000ft
5 à 8 km
1000 à 3000 ft
1500m à 5 km
500 à 1000 ft
800 à 1500m
200 à 500 ft
< 800m
< 200 ft
Symboles :   Orages  Brouillard  Fortes neiges  Fortes précipitations  Vent > 20 kt
SIGMETs :   Divers  Orages  Givrage  Turbulence  Onde Orograph.  Cendres Volcan.






- Altitude de l'aérodrome : 325 ft
- Code IATA : POX


LFPT - Pontoise

DERNIER METAR :
  • 180400Z AUTO 25008KT 9999 FEW033 03/01 Q1025

METARs EXPIRÉS :
  • 180330Z AUTO 25009KT 9999 FEW027 04/01 Q1025
  • 180300Z AUTO 24009KT 9999 SCT025 BKN031 04/01 Q1025
  • 180230Z AUTO 25008KT 9999 -SNRA BKN024/// BKN035/// OVC054/// ///TCU 04/01 Q1025
  • 180200Z AUTO 24007KT 9999 FEW036/// ///TCU 04/01 Q1025
  • 180130Z AUTO 24007KT CAVOK 03/00 Q1024
  • 180100Z AUTO 24010KT 9999 FEW044 BKN150 04/01 Q1024

TAF N/A
ATIS : +33 1 30 30 52 08



MET'MAP, la Météo Aéronautique d'un coup d'oeil ! - Copyright ORBIFLY Décembre 2007 - Disclaimer

ORBIFLY MET'MAP TEAM :

Programmation & Développement : Alexandra Zaïnal
Sur une idée originale de : Baudouin d'Aumeries
Assistance à la programmation : Marc-Olivier Méhu
Soutien technique & logistique : Manuel Goepfert

Contact : metmap@orbifly.com




SOURCES & CREDITS :

   NOAA